sensor_id;sensor_type;location;lat;lon;timestamp;P1;durP1;ratioP1;P2;durP2;ratioP2
16770;SDS011;8503;52.472;13.344;2024-02-15T00:00:32;3.30;;;2.05;;
16770;SDS011;8503;52.472;13.344;2024-02-15T00:01:17;5.95;;;2.17;;
16770;SDS011;8503;52.472;13.344;2024-02-15T00:02:00;2.83;;;2.05;;
16770;SDS011;8503;52.472;13.344;2024-02-15T00:02:45;3.00;;;2.15;;
16770;SDS011;8503;52.472;13.344;2024-02-15T00:03:28;3.50;;;1.85;;
16770;SDS011;8503;52.472;13.344;2024-02-15T00:04:12;6.25;;;2.00;;
16770;SDS011;8503;52.472;13.344;2024-02-15T00:04:55;4.40;;;2.05;;
16770;SDS011;8503;52.472;13.344;2024-02-15T00:05:45;4.78;;;2.33;;
16770;SDS011;8503;52.472;13.344;2024-02-15T00:06:28;2.70;;;2.15;;
16770;SDS011;8503;52.472;13.344;2024-02-15T00:07:11;3.40;;;2.25;;
16770;SDS011;8503;52.472;13.344;2024-02-15T00:07:55;3.40;;;2.30;;
16770;SDS011;8503;52.472;13.344;2024-02-15T00:08:39;3.05;;;2.05;;
16770;SDS011;8503;52.472;13.344;2024-02-15T00:09:21;4.75;;;2.30;;
16770;SDS011;8503;52.472;13.344;2024-02-15T00:10:04;3.85;;;2.25;;
16770;SDS011;8503;52.472;13.344;2024-02-15T00:11:32;2.75;;;1.80;;
16770;SDS011;8503;52.472;13.344;2024-02-15T00:12:15;3.53;;;1.75;;
16770;SDS011;8503;52.472;13.344;2024-02-15T00:12:58;4.15;;;2.22;;
16770;SDS011;8503;52.472;13.344;2024-02-15T00:13:41;5.63;;;2.20;;
16770;SDS011;8503;52.472;13.344;2024-02-15T00:14:25;3.92;;;2.17;;
16770;SDS011;8503;52.472;13.344;2024-02-15T00:15:09;2.47;;;1.73;;
16770;SDS011;8503;52.472;13.344;2024-02-15T00:15:52;3.75;;;1.90;;
16770;SDS011;8503;52.472;13.344;2024-02-15T00:16:35;4.25;;;2.10;;
16770;SDS011;8503;52.472;13.344;2024-02-15T00:17:18;1.98;;;1.73;;
16770;SDS011;8503;52.472;13.344;2024-02-15T00:18:03;4.53;;;2.22;;
16770;SDS011;8503;52.472;13.344;2024-02-15T00:18:46;4.65;;;2.22;;
16770;SDS011;8503;52.472;13.344;2024-02-15T00:19:31;3.58;;;1.75;;
16770;SDS011;8503;52.472;13.344;2024-02-15T00:20:14;3.50;;;2.28;;
16770;SDS011;8503;52.472;13.344;2024-02-15T00:20:58;3.30;;;2.13;;
16770;SDS011;8503;52.472;13.344;2024-02-15T00:21:42;3.58;;;2.42;;
16770;SDS011;8503;52.472;13.344;2024-02-15T00:22:25;4.18;;;2.67;;
16770;SDS011;8503;52.472;13.344;2024-02-15T00:23:07;4.90;;;2.78;;
16770;SDS011;8503;52.472;13.344;2024-02-15T00:23:51;4.97;;;2.60;;
16770;SDS011;8503;52.472;13.344;2024-02-15T00:24:37;3.95;;;2.65;;
16770;SDS011;8503;52.472;13.344;2024-02-15T00:25:20;5.47;;;2.30;;
16770;SDS011;8503;52.472;13.344;2024-02-15T00:26:03;2.75;;;2.22;;
16770;SDS011;8503;52.472;13.344;2024-02-15T00:26:46;4.15;;;2.33;;
16770;SDS011;8503;52.472;13.344;2024-02-15T00:27:29;2.78;;;2.15;;
16770;SDS011;8503;52.472;13.344;2024-02-15T00:28:14;3.05;;;2.22;;
16770;SDS011;8503;52.472;13.344;2024-02-15T00:28:58;5.65;;;2.97;;
16770;SDS011;8503;52.472;13.344;2024-02-15T00:29:40;3.97;;;2.45;;
16770;SDS011;8503;52.472;13.344;2024-02-15T00:30:24;5.13;;;2.35;;
16770;SDS011;8503;52.472;13.344;2024-02-15T00:31:08;3.15;;;2.50;;
16770;SDS011;8503;52.472;13.344;2024-02-15T00:31:51;2.78;;;2.33;;
16770;SDS011;8503;52.472;13.344;2024-02-15T00:32:34;3.05;;;2.28;;
16770;SDS011;8503;52.472;13.344;2024-02-15T00:33:19;3.42;;;2.50;;
16770;SDS011;8503;52.472;13.344;2024-02-15T00:34:04;3.25;;;2.35;;
16770;SDS011;8503;52.472;13.344;2024-02-15T00:34:47;5.72;;;2.15;;
16770;SDS011;8503;52.472;13.344;2024-02-15T00:35:31;3.50;;;2.38;;
16770;SDS011;8503;52.472;13.344;2024-02-15T00:36:14;3.83;;;2.72;;
16770;SDS011;8503;52.472;13.344;2024-02-15T00:36:57;4.00;;;2.63;;
16770;SDS011;8503;52.472;13.344;2024-02-15T00:37:40;4.30;;;2.55;;
16770;SDS011;8503;52.472;13.344;2024-02-15T00:38:23;5.43;;;2.33;;
16770;SDS011;8503;52.472;13.344;2024-02-15T00:39:05;6.00;;;2.72;;
16770;SDS011;8503;52.472;13.344;2024-02-15T00:39:49;3.88;;;2.60;;
16770;SDS011;8503;52.472;13.344;2024-02-15T00:40:32;3.63;;;2.00;;
16770;SDS011;8503;52.472;13.344;2024-02-15T00:41:15;5.13;;;2.28;;
16770;SDS011;8503;52.472;13.344;2024-02-15T00:41:59;4.22;;;2.60;;
16770;SDS011;8503;52.472;13.344;2024-02-15T00:42:41;3.85;;;2.50;;
16770;SDS011;8503;52.472;13.344;2024-02-15T00:43:24;6.07;;;2.45;;
16770;SDS011;8503;52.472;13.344;2024-02-15T00:44:08;3.58;;;2.72;;
16770;SDS011;8503;52.472;13.344;2024-02-15T00:44:51;4.43;;;2.70;;
16770;SDS011;8503;52.472;13.344;2024-02-15T00:45:34;5.30;;;2.90;;
16770;SDS011;8503;52.472;13.344;2024-02-15T00:46:17;3.90;;;2.80;;
16770;SDS011;8503;52.472;13.344;2024-02-15T00:47:00;2.95;;;2.30;;
16770;SDS011;8503;52.472;13.344;2024-02-15T00:47:42;4.30;;;2.65;;
16770;SDS011;8503;52.472;13.344;2024-02-15T00:48:26;4.82;;;2.45;;
16770;SDS011;8503;52.472;13.344;2024-02-15T00:49:11;4.65;;;2.72;;
16770;SDS011;8503;52.472;13.344;2024-02-15T00:49:54;5.60;;;3.10;;
16770;SDS011;8503;52.472;13.344;2024-02-15T00:50:36;3.85;;;2.53;;
16770;SDS011;8503;52.472;13.344;2024-02-15T00:51:20;3.80;;;2.72;;
16770;SDS011;8503;52.472;13.344;2024-02-15T00:52:03;4.25;;;2.75;;
16770;SDS011;8503;52.472;13.344;2024-02-15T00:52:46;4.88;;;2.70;;
16770;SDS011;8503;52.472;13.344;2024-02-15T00:53:29;3.83;;;2.80;;
16770;SDS011;8503;52.472;13.344;2024-02-15T00:54:12;4.68;;;2.92;;
16770;SDS011;8503;52.472;13.344;2024-02-15T00:54:54;5.88;;;2.88;;
16770;SDS011;8503;52.472;13.344;2024-02-15T00:55:37;3.90;;;2.97;;
16770;SDS011;8503;52.472;13.344;2024-02-15T00:56:20;3.25;;;2.75;;
16770;SDS011;8503;52.472;13.344;2024-02-15T00:57:03;5.55;;;2.95;;
16770;SDS011;8503;52.472;13.344;2024-02-15T00:57:46;4.03;;;2.78;;
16770;SDS011;8503;52.472;13.344;2024-02-15T00:58:30;3.42;;;2.63;;
16770;SDS011;8503;52.472;13.344;2024-02-15T00:59:12;5.22;;;2.83;;
16770;SDS011;8503;52.472;13.344;2024-02-15T00:59:55;4.97;;;2.65;;
16770;SDS011;8503;52.472;13.344;2024-02-15T01:00:39;4.13;;;2.78;;
16770;SDS011;8503;52.472;13.344;2024-02-15T01:01:21;4.50;;;3.03;;
16770;SDS011;8503;52.472;13.344;2024-02-15T01:02:04;4.95;;;2.67;;
16770;SDS011;8503;52.472;13.344;2024-02-15T01:02:47;4.32;;;3.17;;
16770;SDS011;8503;52.472;13.344;2024-02-15T01:03:33;4.25;;;3.05;;
16770;SDS011;8503;52.472;13.344;2024-02-15T01:04:16;4.50;;;3.13;;
16770;SDS011;8503;52.472;13.344;2024-02-15T01:05:00;6.15;;;3.33;;
16770;SDS011;8503;52.472;13.344;2024-02-15T01:05:42;4.35;;;2.83;;
16770;SDS011;8503;52.472;13.344;2024-02-15T01:06:25;5.15;;;2.85;;
16770;SDS011;8503;52.472;13.344;2024-02-15T01:07:09;3.47;;;2.42;;
16770;SDS011;8503;52.472;13.344;2024-02-15T01:07:51;4.47;;;3.20;;
16770;SDS011;8503;52.472;13.344;2024-02-15T01:08:36;6.40;;;3.75;;
16770;SDS011;8503;52.472;13.344;2024-02-15T01:09:20;4.45;;;2.63;;
16770;SDS011;8503;52.472;13.344;2024-02-15T01:10:03;3.45;;;2.63;;
16770;SDS011;8503;52.472;13.344;2024-02-15T01:10:47;3.92;;;2.58;;
16770;SDS011;8503;52.472;13.344;2024-02-15T01:11:31;8.05;;;3.45;;
16770;SDS011;8503;52.472;13.344;2024-02-15T01:12:13;5.57;;;3.75;;
16770;SDS011;8503;52.472;13.344;2024-02-15T01:12:56;4.70;;;3.15;;
16770;SDS011;8503;52.472;13.344;2024-02-15T01:13:40;7.00;;;3.25;;
16770;SDS011;8503;52.472;13.344;2024-02-15T01:14:23;5.72;;;3.53;;
16770;SDS011;8503;52.472;13.344;2024-02-15T01:15:06;5.00;;;3.70;;
16770;SDS011;8503;52.472;13.344;2024-02-15T01:15:50;5.38;;;2.80;;
16770;SDS011;8503;52.472;13.344;2024-02-15T01:16:32;4.13;;;3.28;;
16770;SDS011;8503;52.472;13.344;2024-02-15T01:17:16;5.22;;;3.10;;
16770;SDS011;8503;52.472;13.344;2024-02-15T01:18:00;6.40;;;3.47;;
16770;SDS011;8503;52.472;13.344;2024-02-15T01:18:45;4.68;;;3.33;;
16770;SDS011;8503;52.472;13.344;2024-02-15T01:19:27;6.88;;;3.40;;
16770;SDS011;8503;52.472;13.344;2024-02-15T01:20:11;4.57;;;3.33;;
16770;SDS011;8503;52.472;13.344;2024-02-15T01:20:53;4.95;;;3.55;;
16770;SDS011;8503;52.472;13.344;2024-02-15T01:21:36;5.25;;;3.55;;
16770;SDS011;8503;52.472;13.344;2024-02-15T01:22:19;5.97;;;3.40;;
16770;SDS011;8503;52.472;13.344;2024-02-15T01:23:05;5.63;;;3.65;;
16770;SDS011;8503;52.472;13.344;2024-02-15T01:23:49;4.95;;;3.60;;
16770;SDS011;8503;52.472;13.344;2024-02-15T01:24:32;5.10;;;3.78;;
16770;SDS011;8503;52.472;13.344;2024-02-15T01:25:14;7.07;;;3.67;;
16770;SDS011;8503;52.472;13.344;2024-02-15T01:25:58;4.47;;;3.47;;
16770;SDS011;8503;52.472;13.344;2024-02-15T01:26:42;4.30;;;3.03;;
16770;SDS011;8503;52.472;13.344;2024-02-15T01:27:25;5.13;;;3.55;;
16770;SDS011;8503;52.472;13.344;2024-02-15T01:28:11;6.18;;;3.40;;
16770;SDS011;8503;52.472;13.344;2024-02-15T01:28:54;4.63;;;3.10;;
16770;SDS011;8503;52.472;13.344;2024-02-15T01:29:36;3.58;;;3.00;;
16770;SDS011;8503;52.472;13.344;2024-02-15T01:30:20;4.65;;;3.38;;
16770;SDS011;8503;52.472;13.344;2024-02-15T01:31:03;5.68;;;3.33;;
16770;SDS011;8503;52.472;13.344;2024-02-15T01:31:45;4.57;;;3.40;;
16770;SDS011;8503;52.472;13.344;2024-02-15T01:32:29;6.57;;;4.05;;
16770;SDS011;8503;52.472;13.344;2024-02-15T01:33:12;6.57;;;3.88;;
16770;SDS011;8503;52.472;13.344;2024-02-15T01:33:56;5.22;;;3.58;;
16770;SDS011;8503;52.472;13.344;2024-02-15T01:34:40;7.45;;;3.40;;
16770;SDS011;8503;52.472;13.344;2024-02-15T01:35:24;6.45;;;3.63;;
16770;SDS011;8503;52.472;13.344;2024-02-15T01:36:08;5.60;;;3.28;;
16770;SDS011;8503;52.472;13.344;2024-02-15T01:36:56;4.68;;;3.10;;
16770;SDS011;8503;52.472;13.344;2024-02-15T01:37:39;4.05;;;3.10;;
16770;SDS011;8503;52.472;13.344;2024-02-15T01:38:22;7.60;;;3.40;;
16770;SDS011;8503;52.472;13.344;2024-02-15T01:39:05;4.47;;;3.28;;
16770;SDS011;8503;52.472;13.344;2024-02-15T01:39:47;5.28;;;3.38;;
16770;SDS011;8503;52.472;13.344;2024-02-15T01:40:31;5.43;;;3.47;;
16770;SDS011;8503;52.472;13.344;2024-02-15T01:41:14;5.93;;;3.47;;
16770;SDS011;8503;52.472;13.344;2024-02-15T01:41:56;6.15;;;3.38;;
16770;SDS011;8503;52.472;13.344;2024-02-15T01:42:40;6.95;;;3.92;;
16770;SDS011;8503;52.472;13.344;2024-02-15T01:43:22;3.78;;;3.30;;
16770;SDS011;8503;52.472;13.344;2024-02-15T01:44:05;4.50;;;3.38;;
16770;SDS011;8503;52.472;13.344;2024-02-15T01:44:48;6.88;;;3.80;;
16770;SDS011;8503;52.472;13.344;2024-02-15T01:45:31;3.95;;;3.25;;
16770;SDS011;8503;52.472;13.344;2024-02-15T01:46:14;5.07;;;3.53;;
16770;SDS011;8503;52.472;13.344;2024-02-15T01:46:57;4.55;;;3.35;;
16770;SDS011;8503;52.472;13.344;2024-02-15T01:47:41;4.53;;;3.60;;
16770;SDS011;8503;52.472;13.344;2024-02-15T01:48:24;6.32;;;3.72;;
16770;SDS011;8503;52.472;13.344;2024-02-15T01:49:10;5.55;;;3.58;;
16770;SDS011;8503;52.472;13.344;2024-02-15T01:49:53;5.10;;;3.15;;
16770;SDS011;8503;52.472;13.344;2024-02-15T01:50:36;4.50;;;3.40;;
16770;SDS011;8503;52.472;13.344;2024-02-15T01:51:19;7.63;;;3.70;;
16770;SDS011;8503;52.472;13.344;2024-02-15T01:52:02;5.03;;;3.85;;
16770;SDS011;8503;52.472;13.344;2024-02-15T01:52:46;5.60;;;3.90;;
16770;SDS011;8503;52.472;13.344;2024-02-15T01:53:30;4.60;;;2.97;;
16770;SDS011;8503;52.472;13.344;2024-02-15T01:54:14;4.47;;;3.05;;
16770;SDS011;8503;52.472;13.344;2024-02-15T01:54:58;5.28;;;3.70;;
16770;SDS011;8503;52.472;13.344;2024-02-15T01:55:42;5.47;;;3.58;;
16770;SDS011;8503;52.472;13.344;2024-02-15T01:56:25;4.75;;;3.15;;
16770;SDS011;8503;52.472;13.344;2024-02-15T01:57:08;5.15;;;3.38;;
16770;SDS011;8503;52.472;13.344;2024-02-15T01:57:52;5.30;;;3.70;;
16770;SDS011;8503;52.472;13.344;2024-02-15T01:58:35;6.30;;;3.97;;
16770;SDS011;8503;52.472;13.344;2024-02-15T01:59:17;6.00;;;3.70;;
16770;SDS011;8503;52.472;13.344;2024-02-15T02:00:01;4.13;;;3.22;;
16770;SDS011;8503;52.472;13.344;2024-02-15T02:00:44;5.65;;;3.50;;
16770;SDS011;8503;52.472;13.344;2024-02-15T02:01:27;6.45;;;4.18;;
16770;SDS011;8503;52.472;13.344;2024-02-15T02:02:13;5.47;;;3.40;;
16770;SDS011;8503;52.472;13.344;2024-02-15T02:02:56;4.70;;;3.42;;
16770;SDS011;8503;52.472;13.344;2024-02-15T02:03:44;4.88;;;3.13;;
16770;SDS011;8503;52.472;13.344;2024-02-15T02:04:29;5.43;;;3.35;;
16770;SDS011;8503;52.472;13.344;2024-02-15T02:05:13;7.03;;;3.45;;
16770;SDS011;8503;52.472;13.344;2024-02-15T02:05:55;4.18;;;3.17;;
16770;SDS011;8503;52.472;13.344;2024-02-15T02:06:39;5.95;;;3.70;;
16770;SDS011;8503;52.472;13.344;2024-02-15T02:07:22;5.93;;;3.55;;
16770;SDS011;8503;52.472;13.344;2024-02-15T02:08:05;5.43;;;3.55;;
16770;SDS011;8503;52.472;13.344;2024-02-15T02:08:51;4.32;;;3.55;;
16770;SDS011;8503;52.472;13.344;2024-02-15T02:09:39;6.80;;;3.95;;
16770;SDS011;8503;52.472;13.344;2024-02-15T02:10:21;5.53;;;4.25;;
16770;SDS011;8503;52.472;13.344;2024-02-15T02:11:04;6.00;;;3.90;;
16770;SDS011;8503;52.472;13.344;2024-02-15T02:11:47;5.80;;;3.70;;
16770;SDS011;8503;52.472;13.344;2024-02-15T02:12:32;4.22;;;3.38;;
16770;SDS011;8503;52.472;13.344;2024-02-15T02:13:14;6.20;;;3.83;;
16770;SDS011;8503;52.472;13.344;2024-02-15T02:13:58;6.00;;;3.58;;
16770;SDS011;8503;52.472;13.344;2024-02-15T02:14:41;4.47;;;3.38;;
16770;SDS011;8503;52.472;13.344;2024-02-15T02:15:23;6.38;;;4.20;;
16770;SDS011;8503;52.472;13.344;2024-02-15T02:17:10;7.32;;;4.18;;
16770;SDS011;8503;52.472;13.344;2024-02-15T02:17:54;5.35;;;3.90;;
16770;SDS011;8503;52.472;13.344;2024-02-15T02:18:39;5.18;;;3.50;;
16770;SDS011;8503;52.472;13.344;2024-02-15T02:19:21;5.78;;;3.30;;
16770;SDS011;8503;52.472;13.344;2024-02-15T02:20:07;6.35;;;3.60;;
16770;SDS011;8503;52.472;13.344;2024-02-15T02:20:55;5.70;;;3.60;;
16770;SDS011;8503;52.472;13.344;2024-02-15T02:21:38;5.60;;;3.95;;
16770;SDS011;8503;52.472;13.344;2024-02-15T02:22:21;4.88;;;3.53;;
16770;SDS011;8503;52.472;13.344;2024-02-15T02:23:07;4.57;;;3.90;;
16770;SDS011;8503;52.472;13.344;2024-02-15T02:23:52;5.53;;;3.47;;
16770;SDS011;8503;52.472;13.344;2024-02-15T02:24:40;5.93;;;3.65;;
16770;SDS011;8503;52.472;13.344;2024-02-15T02:25:28;5.78;;;3.33;;
16770;SDS011;8503;52.472;13.344;2024-02-15T02:26:11;4.47;;;3.15;;
16770;SDS011;8503;52.472;13.344;2024-02-15T02:26:54;5.03;;;4.00;;
16770;SDS011;8503;52.472;13.344;2024-02-15T02:27:37;5.88;;;3.72;;
16770;SDS011;8503;52.472;13.344;2024-02-15T02:28:20;5.78;;;4.38;;
16770;SDS011;8503;52.472;13.344;2024-02-15T02:29:03;5.40;;;3.60;;
16770;SDS011;8503;52.472;13.344;2024-02-15T02:29:46;6.20;;;3.92;;
16770;SDS011;8503;52.472;13.344;2024-02-15T02:30:29;5.43;;;3.95;;
16770;SDS011;8503;52.472;13.344;2024-02-15T02:31:12;4.80;;;3.53;;
16770;SDS011;8503;52.472;13.344;2024-02-15T02:31:55;6.30;;;4.00;;
16770;SDS011;8503;52.472;13.344;2024-02-15T02:32:39;7.15;;;3.83;;
16770;SDS011;8503;52.472;13.344;2024-02-15T02:33:22;6.97;;;3.95;;
16770;SDS011;8503;52.472;13.344;2024-02-15T02:34:10;5.80;;;4.18;;
16770;SDS011;8503;52.472;13.344;2024-02-15T02:34:56;5.10;;;3.67;;
16770;SDS011;8503;52.472;13.344;2024-02-15T02:35:38;6.00;;;3.78;;
16770;SDS011;8503;52.472;13.344;2024-02-15T02:36:21;5.18;;;3.65;;
16770;SDS011;8503;52.472;13.344;2024-02-15T02:37:08;4.43;;;3.63;;
16770;SDS011;8503;52.472;13.344;2024-02-15T02:37:50;4.65;;;3.38;;
16770;SDS011;8503;52.472;13.344;2024-02-15T02:38:34;5.88;;;4.13;;
16770;SDS011;8503;52.472;13.344;2024-02-15T02:39:19;6.95;;;4.45;;
16770;SDS011;8503;52.472;13.344;2024-02-15T02:40:04;5.65;;;3.95;;
16770;SDS011;8503;52.472;13.344;2024-02-15T02:40:51;5.80;;;3.90;;
16770;SDS011;8503;52.472;13.344;2024-02-15T02:41:33;6.35;;;3.70;;
16770;SDS011;8503;52.472;13.344;2024-02-15T02:42:16;5.30;;;3.83;;
16770;SDS011;8503;52.472;13.344;2024-02-15T02:42:59;4.72;;;3.47;;
16770;SDS011;8503;52.472;13.344;2024-02-15T02:43:42;5.65;;;3.78;;
16770;SDS011;8503;52.472;13.344;2024-02-15T02:44:24;5.85;;;4.30;;
16770;SDS011;8503;52.472;13.344;2024-02-15T02:45:08;8.82;;;3.85;;
16770;SDS011;8503;52.472;13.344;2024-02-15T02:45:50;4.85;;;3.85;;
16770;SDS011;8503;52.472;13.344;2024-02-15T02:46:34;6.43;;;4.50;;
16770;SDS011;8503;52.472;13.344;2024-02-15T02:47:17;4.70;;;3.60;;
16770;SDS011;8503;52.472;13.344;2024-02-15T02:47:59;6.18;;;3.75;;
16770;SDS011;8503;52.472;13.344;2024-02-15T02:48:43;7.18;;;4.30;;
16770;SDS011;8503;52.472;13.344;2024-02-15T02:49:25;4.80;;;3.13;;
16770;SDS011;8503;52.472;13.344;2024-02-15T02:50:08;4.47;;;3.45;;
16770;SDS011;8503;52.472;13.344;2024-02-15T02:50:52;5.82;;;3.80;;
16770;SDS011;8503;52.472;13.344;2024-02-15T02:51:34;4.43;;;3.58;;
16770;SDS011;8503;52.472;13.344;2024-02-15T02:52:17;5.53;;;3.97;;
16770;SDS011;8503;52.472;13.344;2024-02-15T02:53:00;7.38;;;4.25;;
16770;SDS011;8503;52.472;13.344;2024-02-15T02:53:43;6.53;;;3.45;;
16770;SDS011;8503;52.472;13.344;2024-02-15T02:54:26;5.00;;;3.42;;
16770;SDS011;8503;52.472;13.344;2024-02-15T02:55:10;6.20;;;4.55;;
16770;SDS011;8503;52.472;13.344;2024-02-15T02:55:55;5.85;;;3.97;;
16770;SDS011;8503;52.472;13.344;2024-02-15T02:56:38;4.60;;;3.78;;
16770;SDS011;8503;52.472;13.344;2024-02-15T02:57:21;4.97;;;3.80;;
16770;SDS011;8503;52.472;13.344;2024-02-15T02:58:03;5.18;;;4.00;;
16770;SDS011;8503;52.472;13.344;2024-02-15T02:58:46;5.32;;;3.97;;
16770;SDS011;8503;52.472;13.344;2024-02-15T02:59:30;5.93;;;3.88;;
16770;SDS011;8503;52.472;13.344;2024-02-15T03:00:13;5.70;;;3.92;;
16770;SDS011;8503;52.472;13.344;2024-02-15T03:00:58;6.43;;;4.30;;
16770;SDS011;8503;52.472;13.344;2024-02-15T03:01:42;5.25;;;3.83;;
16770;SDS011;8503;52.472;13.344;2024-02-15T03:02:24;4.75;;;3.72;;
16770;SDS011;8503;52.472;13.344;2024-02-15T03:03:07;8.13;;;4.20;;
16770;SDS011;8503;52.472;13.344;2024-02-15T03:03:51;5.28;;;4.03;;
16770;SDS011;8503;52.472;13.344;2024-02-15T03:04:33;5.15;;;3.97;;
16770;SDS011;8503;52.472;13.344;2024-02-15T03:05:16;5.70;;;3.95;;
16770;SDS011;8503;52.472;13.344;2024-02-15T03:06:03;5.63;;;4.07;;
16770;SDS011;8503;52.472;13.344;2024-02-15T03:06:47;4.05;;;3.08;;
16770;SDS011;8503;52.472;13.344;2024-02-15T03:07:32;5.93;;;4.50;;
16770;SDS011;8503;52.472;13.344;2024-02-15T03:08:15;5.32;;;3.80;;
16770;SDS011;8503;52.472;13.344;2024-02-15T03:08:58;4.43;;;3.72;;
16770;SDS011;8503;52.472;13.344;2024-02-15T03:09:41;8.05;;;4.35;;
16770;SDS011;8503;52.472;13.344;2024-02-15T03:10:24;7.32;;;4.45;;
16770;SDS011;8503;52.472;13.344;2024-02-15T03:11:10;5.32;;;3.53;;
16770;SDS011;8503;52.472;13.344;2024-02-15T03:11:53;6.82;;;4.63;;
16770;SDS011;8503;52.472;13.344;2024-02-15T03:12:36;7.68;;;3.97;;
16770;SDS011;8503;52.472;13.344;2024-02-15T03:13:21;5.22;;;3.88;;
16770;SDS011;8503;52.472;13.344;2024-02-15T03:14:04;6.78;;;4.25;;
16770;SDS011;8503;52.472;13.344;2024-02-15T03:14:48;6.70;;;4.30;;
16770;SDS011;8503;52.472;13.344;2024-02-15T03:15:30;6.90;;;4.13;;
16770;SDS011;8503;52.472;13.344;2024-02-15T03:16:14;6.65;;;4.25;;
16770;SDS011;8503;52.472;13.344;2024-02-15T03:16:57;8.35;;;3.85;;
16770;SDS011;8503;52.472;13.344;2024-02-15T03:17:45;5.47;;;3.38;;
16770;SDS011;8503;52.472;13.344;2024-02-15T03:18:29;7.95;;;4.18;;
16770;SDS011;8503;52.472;13.344;2024-02-15T03:19:13;6.38;;;4.50;;
16770;SDS011;8503;52.472;13.344;2024-02-15T03:19:57;5.72;;;4.15;;
16770;SDS011;8503;52.472;13.344;2024-02-15T03:20:40;6.05;;;4.05;;
16770;SDS011;8503;52.472;13.344;2024-02-15T03:21:23;5.55;;;3.60;;
16770;SDS011;8503;52.472;13.344;2024-02-15T03:22:08;6.45;;;4.20;;
16770;SDS011;8503;52.472;13.344;2024-02-15T03:22:52;7.65;;;4.35;;
16770;SDS011;8503;52.472;13.344;2024-02-15T03:23:35;5.13;;;3.65;;
16770;SDS011;8503;52.472;13.344;2024-02-15T03:24:19;7.90;;;4.57;;
16770;SDS011;8503;52.472;13.344;2024-02-15T03:25:01;6.00;;;4.35;;
16770;SDS011;8503;52.472;13.344;2024-02-15T03:25:48;5.63;;;4.05;;
16770;SDS011;8503;52.472;13.344;2024-02-15T03:26:33;6.55;;;4.32;;
16770;SDS011;8503;52.472;13.344;2024-02-15T03:27:18;5.47;;;3.58;;
16770;SDS011;8503;52.472;13.344;2024-02-15T03:28:47;6.07;;;4.03;;
16770;SDS011;8503;52.472;13.344;2024-02-15T03:29:31;5.72;;;3.78;;
16770;SDS011;8503;52.472;13.344;2024-02-15T03:30:17;8.15;;;4.03;;
16770;SDS011;8503;52.472;13.344;2024-02-15T03:31:00;5.25;;;3.47;;
16770;SDS011;8503;52.472;13.344;2024-02-15T03:31:44;5.05;;;3.95;;
16770;SDS011;8503;52.472;13.344;2024-02-15T03:32:26;4.45;;;3.50;;
16770;SDS011;8503;52.472;13.344;2024-02-15T03:33:09;7.80;;;3.88;;
16770;SDS011;8503;52.472;13.344;2024-02-15T03:33:54;6.13;;;4.10;;
16770;SDS011;8503;52.472;13.344;2024-02-15T03:34:37;5.63;;;3.78;;
16770;SDS011;8503;52.472;13.344;2024-02-15T03:35:21;6.07;;;4.13;;
16770;SDS011;8503;52.472;13.344;2024-02-15T03:36:06;5.80;;;4.25;;
16770;SDS011;8503;52.472;13.344;2024-02-15T03:36:48;7.20;;;4.35;;
16770;SDS011;8503;52.472;13.344;2024-02-15T03:37:34;5.70;;;4.00;;
16770;SDS011;8503;52.472;13.344;2024-02-15T03:38:19;5.68;;;3.75;;
16770;SDS011;8503;52.472;13.344;2024-02-15T03:39:02;6.25;;;4.07;;
16770;SDS011;8503;52.472;13.344;2024-02-15T03:39:47;6.05;;;4.20;;
16770;SDS011;8503;52.472;13.344;2024-02-15T03:40:30;7.35;;;4.60;;
16770;SDS011;8503;52.472;13.344;2024-02-15T03:41:13;5.97;;;4.30;;
16770;SDS011;8503;52.472;13.344;2024-02-15T03:41:57;6.15;;;3.72;;
16770;SDS011;8503;52.472;13.344;2024-02-15T03:42:40;6.38;;;4.53;;
16770;SDS011;8503;52.472;13.344;2024-02-15T03:43:23;5.78;;;3.75;;
16770;SDS011;8503;52.472;13.344;2024-02-15T03:44:06;5.47;;;4.13;;
16770;SDS011;8503;52.472;13.344;2024-02-15T03:44:50;6.55;;;3.72;;
16770;SDS011;8503;52.472;13.344;2024-02-15T03:45:32;6.45;;;4.40;;
16770;SDS011;8503;52.472;13.344;2024-02-15T03:46:16;8.23;;;4.70;;
16770;SDS011;8503;52.472;13.344;2024-02-15T03:46:58;6.53;;;4.28;;
16770;SDS011;8503;52.472;13.344;2024-02-15T03:47:41;6.20;;;3.78;;
16770;SDS011;8503;52.472;13.344;2024-02-15T03:48:24;5.97;;;3.92;;
16770;SDS011;8503;52.472;13.344;2024-02-15T03:49:07;8.23;;;4.72;;
16770;SDS011;8503;52.472;13.344;2024-02-15T03:49:52;5.00;;;3.72;;
16770;SDS011;8503;52.472;13.344;2024-02-15T03:50:37;8.40;;;4.20;;
16770;SDS011;8503;52.472;13.344;2024-02-15T03:51:20;6.13;;;3.80;;
16770;SDS011;8503;52.472;13.344;2024-02-15T03:52:48;4.30;;;3.42;;
16770;SDS011;8503;52.472;13.344;2024-02-15T03:53:31;4.70;;;3.50;;
16770;SDS011;8503;52.472;13.344;2024-02-15T03:54:15;6.05;;;3.53;;
16770;SDS011;8503;52.472;13.344;2024-02-15T03:54:57;4.63;;;3.90;;
16770;SDS011;8503;52.472;13.344;2024-02-15T03:55:40;6.55;;;4.25;;
16770;SDS011;8503;52.472;13.344;2024-02-15T03:56:24;5.85;;;3.83;;
16770;SDS011;8503;52.472;13.344;2024-02-15T03:57:08;7.30;;;4.53;;
16770;SDS011;8503;52.472;13.344;2024-02-15T03:57:52;6.72;;;3.97;;
16770;SDS011;8503;52.472;13.344;2024-02-15T03:58:37;5.30;;;3.97;;
16770;SDS011;8503;52.472;13.344;2024-02-15T03:59:21;7.35;;;4.05;;
16770;SDS011;8503;52.472;13.344;2024-02-15T04:00:08;5.97;;;4.22;;
16770;SDS011;8503;52.472;13.344;2024-02-15T04:00:54;7.00;;;4.07;;
16770;SDS011;8503;52.472;13.344;2024-02-15T04:01:38;7.20;;;4.50;;
16770;SDS011;8503;52.472;13.344;2024-02-15T04:02:21;8.98;;;4.50;;
16770;SDS011;8503;52.472;13.344;2024-02-15T04:03:07;6.07;;;3.85;;
16770;SDS011;8503;52.472;13.344;2024-02-15T04:03:50;6.43;;;4.15;;
16770;SDS011;8503;52.472;13.344;2024-02-15T04:04:33;6.53;;;4.28;;
16770;SDS011;8503;52.472;13.344;2024-02-15T04:05:18;8.40;;;4.88;;
16770;SDS011;8503;52.472;13.344;2024-02-15T04:06:03;7.03;;;4.53;;
16770;SDS011;8503;52.472;13.344;2024-02-15T04:06:46;6.85;;;4.10;;
16770;SDS011;8503;52.472;13.344;2024-02-15T04:07:30;4.78;;;3.72;;
16770;SDS011;8503;52.472;13.344;2024-02-15T04:08:13;6.50;;;4.53;;
16770;SDS011;8503;52.472;13.344;2024-02-15T04:08:57;6.47;;;3.88;;
16770;SDS011;8503;52.472;13.344;2024-02-15T04:09:41;6.97;;;4.13;;
16770;SDS011;8503;52.472;13.344;2024-02-15T04:10:23;6.25;;;4.20;;
16770;SDS011;8503;52.472;13.344;2024-02-15T04:11:06;7.82;;;4.43;;
16770;SDS011;8503;52.472;13.344;2024-02-15T04:11:49;8.55;;;4.65;;
16770;SDS011;8503;52.472;13.344;2024-02-15T04:12:37;6.40;;;3.58;;
16770;SDS011;8503;52.472;13.344;2024-02-15T04:13:19;5.40;;;4.00;;
16770;SDS011;8503;52.472;13.344;2024-02-15T04:14:03;6.30;;;4.10;;
16770;SDS011;8503;52.472;13.344;2024-02-15T04:14:46;8.65;;;4.28;;
16770;SDS011;8503;52.472;13.344;2024-02-15T04:15:30;4.88;;;4.15;;
16770;SDS011;8503;52.472;13.344;2024-02-15T04:16:15;6.50;;;4.70;;
16770;SDS011;8503;52.472;13.344;2024-02-15T04:16:57;6.30;;;4.43;;
16770;SDS011;8503;52.472;13.344;2024-02-15T04:17:40;5.57;;;3.83;;
16770;SDS011;8503;52.472;13.344;2024-02-15T04:18:26;6.13;;;3.95;;
16770;SDS011;8503;52.472;13.344;2024-02-15T04:19:11;5.70;;;3.92;;
16770;SDS011;8503;52.472;13.344;2024-02-15T04:19:54;7.72;;;4.25;;
16770;SDS011;8503;52.472;13.344;2024-02-15T04:20:37;6.60;;;3.83;;
16770;SDS011;8503;52.472;13.344;2024-02-15T04:21:20;7.50;;;4.15;;
16770;SDS011;8503;52.472;13.344;2024-02-15T04:22:02;7.82;;;4.18;;
16770;SDS011;8503;52.472;13.344;2024-02-15T04:22:49;8.02;;;4.20;;
16770;SDS011;8503;52.472;13.344;2024-02-15T04:23:32;6.38;;;4.18;;
16770;SDS011;8503;52.472;13.344;2024-02-15T04:24:16;7.05;;;4.30;;
16770;SDS011;8503;52.472;13.344;2024-02-15T04:24:58;8.23;;;4.40;;
16770;SDS011;8503;52.472;13.344;2024-02-15T04:25:41;8.10;;;4.40;;
16770;SDS011;8503;52.472;13.344;2024-02-15T04:26:25;8.02;;;4.60;;